createdAt,value
2018-08-22T00:00:54.064Z,17.83
2018-08-22T00:03:22.613Z,17.68
2018-08-22T00:05:51.123Z,17.77
2018-08-22T00:08:24.633Z,17.59
2018-08-22T00:10:53.177Z,17.42
2018-08-22T00:13:21.676Z,17.25
2018-08-22T00:15:50.208Z,17.26
2018-08-22T00:18:18.732Z,17.43
2018-08-22T00:20:47.268Z,17.58
2018-08-22T00:23:15.778Z,17.37
2018-08-22T00:25:44.396Z,17.29
2018-08-22T00:28:12.897Z,17.44
2018-08-22T00:30:41.419Z,17.59
2018-08-22T00:33:09.940Z,17.67
2018-08-22T00:35:38.473Z,17.57
2018-08-22T00:38:06.984Z,17.42
2018-08-22T00:40:35.516Z,17.18
2018-08-22T00:43:04.192Z,17.12
2018-08-22T00:45:32.716Z,17.33
2018-08-22T00:48:01.210Z,17.38
2018-08-22T00:50:29.732Z,16.94
2018-08-22T00:52:58.251Z,16.88
2018-08-22T00:55:26.817Z,16.93
2018-08-22T00:57:55.322Z,16.98
2018-08-22T01:00:23.849Z,17.18
2018-08-22T01:02:52.385Z,17.01
2018-08-22T01:05:21.712Z,16.99
2018-08-22T01:07:50.200Z,16.77
2018-08-22T01:10:19.332Z,16.90
2018-08-22T01:12:47.900Z,16.52
2018-08-22T01:15:16.636Z,16.54
2018-08-22T01:17:45.138Z,16.74
2018-08-22T01:20:20.312Z,16.87
2018-08-22T01:22:48.812Z,16.91
2018-08-22T01:25:17.340Z,16.89
2018-08-22T01:27:46.287Z,16.49
2018-08-22T01:30:14.820Z,16.44
2018-08-22T01:32:43.329Z,16.44
2018-08-22T01:35:12.192Z,16.59
2018-08-22T01:37:40.696Z,16.49
2018-08-22T01:40:09.197Z,16.87
2018-08-22T01:42:37.724Z,17.05
2018-08-22T01:45:06.339Z,17.17
2018-08-22T01:47:34.921Z,16.99
2018-08-22T01:50:04.537Z,16.78
2018-08-22T01:52:33.095Z,17.00
2018-08-22T01:55:01.644Z,16.92
2018-08-22T01:57:30.380Z,16.78
2018-08-22T01:59:58.900Z,17.10
2018-08-22T02:02:27.448Z,16.88
2018-08-22T02:04:55.984Z,16.56
2018-08-22T02:07:24.536Z,16.60
2018-08-22T02:09:53.045Z,16.61
2018-08-22T02:12:22.444Z,16.76
2018-08-22T02:14:50.960Z,16.78
2018-08-22T02:17:19.507Z,16.26
2018-08-22T02:19:48.020Z,16.19
2018-08-22T02:22:16.578Z,16.21
2018-08-22T02:24:45.114Z,16.48
2018-08-22T02:27:13.669Z,16.48
2018-08-22T02:29:42.188Z,16.42
2018-08-22T02:32:10.716Z,15.98
2018-08-22T02:34:39.228Z,16.01
2018-08-22T02:37:07.783Z,16.26
2018-08-22T02:39:36.304Z,16.18
2018-08-22T02:42:05.096Z,16.29
2018-08-22T02:44:34.676Z,16.07
2018-08-22T02:47:03.224Z,15.94
2018-08-22T02:49:31.741Z,16.09
2018-08-22T02:52:00.294Z,16.15
2018-08-22T02:54:28.865Z,16.28
2018-08-22T02:56:57.425Z,16.21
2018-08-22T02:59:25.961Z,16.28
2018-08-22T03:01:54.572Z,16.27
2018-08-22T03:04:23.101Z,16.24
2018-08-22T03:06:51.680Z,16.04
2018-08-22T03:09:20.209Z,16.00
2018-08-22T03:11:48.757Z,16.17
2018-08-22T03:14:17.324Z,16.50
2018-08-22T03:16:45.868Z,16.42
2018-08-22T03:19:14.454Z,16.07
2018-08-22T03:21:42.984Z,15.74
2018-08-22T03:24:11.935Z,15.83
2018-08-22T03:26:40.505Z,16.33
2018-08-22T03:29:09.077Z,16.42
2018-08-22T03:31:37.872Z,16.08
2018-08-22T03:34:06.533Z,15.82
2018-08-22T03:36:35.286Z,15.88
2018-08-22T03:39:04.756Z,15.67
2018-08-22T03:41:33.294Z,15.61
2018-08-22T03:44:01.852Z,15.99
2018-08-22T03:46:30.389Z,16.15
2018-08-22T03:48:58.954Z,16.31
2018-08-22T03:51:27.484Z,15.88
2018-08-22T03:53:56.180Z,16.08
2018-08-22T03:56:24.728Z,16.25
2018-08-22T03:58:53.325Z,15.84
2018-08-22T04:01:21.837Z,16.15
2018-08-22T04:03:50.466Z,16.15
2018-08-22T04:06:18.994Z,16.35
2018-08-22T04:08:47.548Z,16.44
2018-08-22T04:11:16.069Z,16.30
2018-08-22T04:13:51.400Z,16.31
2018-08-22T04:16:19.915Z,16.06
2018-08-22T04:18:48.726Z,16.05
2018-08-22T04:21:17.394Z,16.06
2018-08-22T04:23:45.944Z,16.04
2018-08-22T04:26:14.448Z,15.98
2018-08-22T04:28:43.007Z,15.99
2018-08-22T04:31:11.604Z,15.68
2018-08-22T04:33:40.157Z,15.49
2018-08-22T04:36:08.701Z,15.68
2018-08-22T04:38:37.258Z,15.66
2018-08-22T04:41:05.833Z,15.94
2018-08-22T04:43:34.404Z,16.13
2018-08-22T04:46:03.929Z,15.95
2018-08-22T04:48:32.453Z,15.76
2018-08-22T04:51:01.291Z,15.92
2018-08-22T04:53:29.841Z,15.74
2018-08-22T04:55:58.414Z,15.84
2018-08-22T04:58:26.931Z,15.84
2018-08-22T05:00:55.517Z,15.85
2018-08-22T05:03:24.292Z,15.94
2018-08-22T05:05:52.858Z,16.07
2018-08-22T05:08:22.382Z,15.95
2018-08-22T05:10:50.946Z,16.04
2018-08-22T05:13:19.497Z,16.22
2018-08-22T05:15:48.066Z,16.02
2018-08-22T05:18:16.592Z,16.03
2018-08-22T05:20:45.145Z,15.69
2018-08-22T05:23:13.944Z,15.66
2018-08-22T05:25:42.613Z,15.78
2018-08-22T05:28:11.439Z,16.02
2018-08-22T05:30:40.110Z,16.29
2018-08-22T05:33:09.090Z,16.47
2018-08-22T05:35:37.684Z,16.71
2018-08-22T05:38:06.480Z,16.80
2018-08-22T05:40:35.738Z,16.92
2018-08-22T05:43:04.285Z,17.05
2018-08-22T05:45:32.853Z,17.06
2018-08-22T05:48:01.384Z,17.13
2018-08-22T05:50:29.956Z,17.15
2018-08-22T05:52:58.480Z,17.26
2018-08-22T05:55:27.089Z,17.39
2018-08-22T05:57:55.612Z,17.48
2018-08-22T06:00:24.161Z,17.54
2018-08-22T06:02:52.687Z,17.47
2018-08-22T06:05:21.578Z,17.48
2018-08-22T06:07:50.493Z,17.52
2018-08-22T06:10:19.033Z,17.74
2018-08-22T06:12:47.591Z,17.83
2018-08-22T06:15:16.129Z,17.74
2018-08-22T06:17:44.723Z,17.86
2018-08-22T06:20:13.288Z,17.98
2018-08-22T06:22:41.824Z,18.11
2018-08-22T06:25:10.341Z,18.15
2018-08-22T06:27:38.896Z,18.25
2018-08-22T06:30:09.128Z,18.20
2018-08-22T06:32:37.701Z,18.35
2018-08-22T06:35:06.341Z,18.46
2018-08-22T06:37:35.946Z,18.59
2018-08-22T06:40:05.228Z,18.58
2018-08-22T06:42:33.812Z,18.75
2018-08-22T06:45:02.416Z,18.76
2018-08-22T06:47:30.993Z,18.85
2018-08-22T06:49:59.512Z,18.95
2018-08-22T06:52:28.069Z,19.04
2018-08-22T06:54:56.636Z,19.19
2018-08-22T06:57:25.249Z,19.29
2018-08-22T06:59:53.791Z,19.33
2018-08-22T07:02:22.431Z,19.39
2018-08-22T07:04:50.936Z,19.42
2018-08-22T07:07:19.513Z,19.53
2018-08-22T07:09:48.052Z,19.69
2018-08-22T07:12:16.622Z,19.77
2018-08-22T07:14:45.169Z,19.89
2018-08-22T07:17:13.753Z,20.04
2018-08-22T07:19:42.291Z,20.09
2018-08-22T07:22:10.912Z,20.16
2018-08-22T07:24:39.456Z,20.30
2018-08-22T07:27:08.056Z,20.44
2018-08-22T07:29:36.645Z,20.51
2018-08-22T07:32:05.215Z,20.59
2018-08-22T07:34:33.748Z,20.63
2018-08-22T07:37:02.308Z,20.67
2018-08-22T07:39:30.879Z,20.70
2018-08-22T07:41:59.514Z,20.83
2018-08-22T07:44:28.092Z,20.89
2018-08-22T07:46:56.629Z,20.96
2018-08-22T07:49:25.216Z,21.06
2018-08-22T07:51:53.813Z,21.23
2018-08-22T07:54:28.644Z,21.48
2018-08-22T07:56:57.259Z,21.52
2018-08-22T07:59:25.860Z,21.37
2018-08-22T08:01:54.491Z,21.56
2018-08-22T08:04:23.021Z,21.60
2018-08-22T08:06:51.564Z,21.69
2018-08-22T08:09:20.129Z,21.73
2018-08-22T08:11:48.685Z,21.87
2018-08-22T08:14:17.255Z,21.96
2018-08-22T08:16:45.801Z,22.18
2018-08-22T08:19:14.689Z,21.99
2018-08-22T08:21:43.237Z,21.96
2018-08-22T08:24:11.804Z,22.32
2018-08-22T08:26:40.340Z,22.46
2018-08-22T08:29:08.922Z,22.65
2018-08-22T08:31:37.888Z,22.61
2018-08-22T08:34:06.458Z,22.83
2018-08-22T08:36:35.001Z,22.98
2018-08-22T08:39:03.849Z,22.79
2018-08-22T08:41:32.467Z,22.73
2018-08-22T08:44:01.029Z,22.63
2018-08-22T08:46:33.041Z,23.11
2018-08-22T08:49:02.012Z,23.35
2018-08-22T08:51:30.664Z,23.30
2018-08-22T08:53:59.274Z,23.43
2018-08-22T08:56:27.800Z,23.29
2018-08-22T08:58:56.388Z,23.40
2018-08-22T09:01:24.921Z,23.35
2018-08-22T09:03:53.528Z,23.35
2018-08-22T09:06:22.047Z,23.85
2018-08-22T09:08:50.642Z,24.13
2018-08-22T09:11:19.178Z,24.08
2018-08-22T09:13:53.037Z,24.06
2018-08-22T09:16:21.932Z,23.98
2018-08-22T09:18:50.507Z,24.08
2018-08-22T09:21:19.080Z,23.86
2018-08-22T09:23:47.616Z,24.21
2018-08-22T09:26:16.177Z,24.10
2018-08-22T09:28:45.560Z,24.80
2018-08-22T09:31:14.244Z,24.85
2018-08-22T09:33:42.811Z,24.85
2018-08-22T09:36:11.386Z,25.00
2018-08-22T09:38:43.522Z,25.41
2018-08-22T09:41:12.278Z,25.54
2018-08-22T09:43:40.809Z,25.11
2018-08-22T09:46:09.640Z,25.32
2018-08-22T09:48:38.217Z,25.47
2018-08-22T09:51:07.012Z,25.70
2018-08-22T09:53:35.584Z,25.41
2018-08-22T09:56:04.239Z,25.70
2018-08-22T09:58:32.944Z,25.53
2018-08-22T10:01:06.905Z,25.81
2018-08-22T10:03:53.215Z,25.82
2018-08-22T10:06:30.009Z,26.25
2018-08-22T10:09:02.360Z,25.89
2018-08-22T10:11:30.932Z,25.94
2018-08-22T10:14:03.465Z,26.70
2018-08-22T10:16:32.060Z,26.79
2018-08-22T10:19:00.637Z,27.14
2018-08-22T10:21:29.269Z,26.49
2018-08-22T10:23:57.804Z,26.96
2018-08-22T10:26:26.389Z,27.01
2018-08-22T10:28:55.176Z,26.95
2018-08-22T10:31:24.510Z,26.66
2018-08-22T10:33:53.205Z,26.88
2018-08-22T10:36:21.784Z,27.16
2018-08-22T10:38:50.366Z,26.63
2018-08-22T10:41:18.953Z,27.37
2018-08-22T10:43:47.568Z,27.38
2018-08-22T10:46:16.148Z,28.10
2018-08-22T10:48:44.688Z,28.25
2018-08-22T10:51:13.267Z,27.70
2018-08-22T10:53:41.849Z,27.43
2018-08-22T10:56:10.437Z,27.90
2018-08-22T10:58:39.007Z,28.54
2018-08-22T11:01:07.553Z,28.47
2018-08-22T11:03:36.106Z,28.53
2018-08-22T11:06:04.661Z,28.35
2018-08-22T11:08:33.237Z,28.01
2018-08-22T11:11:01.776Z,28.28
2018-08-22T11:13:30.356Z,28.27
2018-08-22T11:15:58.994Z,28.74
2018-08-22T11:18:27.586Z,29.11
2018-08-22T11:20:55.516Z,28.63
2018-08-22T11:23:35.261Z,28.43
2018-08-22T11:26:15.037Z,29.18
2018-08-22T11:28:54.809Z,29.08
2018-08-22T11:31:34.521Z,29.21
2018-08-22T11:34:14.389Z,28.78
2018-08-22T11:36:49.301Z,28.61
2018-08-22T11:39:17.870Z,28.45
2018-08-22T11:41:46.429Z,29.62
2018-08-22T11:44:15.068Z,29.37
